798 Art Zone, China

7:08 AM CST on September 25, 2017 (GMT +0800)
International School of Beijing | | Change Station

Elev 95 ft 40.08 °N, 116.52 °E | Updated 8 minutes ago

Overcast
Overcast
70.1 °F
Feels Like 71 °F
N
1.0
Wind Variable Wind from NW
Gusts 1.0 mph

Today
High -- | Low -- °F
--% Chance of Precip.
Yesterday
High -- | Low -- °F
Precip. -- in
Pressure 29.89 in
Visibility 3.1 miles
Clouds Overcast 4000 ft
Heat Index 71 °F
Dew Point 64 °F
Humidity 80%
Rainfall 0.00 in
Snow Depth Not available.
6:04 AM 6:06 PM
Waxing Crescent, 22% visible
METAR ZBAA 242300Z 01002MPS 5000 BR OVC040 21/17 Q1012 NOSIG
Pressure 29.89 in
Visibility 3.1 miles
Clouds Overcast 4000 ft
Heat Index 71 °F
Dew Point 64 °F
Humidity 80%
Rainfall 0.00 in
Snow Depth Not available.
6:04 AM 6:06 PM
Waxing Crescent, 22% visible
METAR ZBAA 242300Z 01002MPS 5000 BR OVC040 21/17 Q1012 NOSIG

Get Severe Weather Alerts

Thanks for signing up!

Be on the lookout for a verification email in your inbox.

You'll start receiving the daily forecast at 6 AM.

×

10-Day Weather Forecast

No radar image for this location.
×

Almanac

Astronomy

Sep. 25, 2017 Rise Set
Actual Time
Civil Twilight
Nautical Twilight
Astronomical Twilight
Moon
Length of Visible Light
Length of Day
Tomorrow will be .
, % of the Moon is Illuminated

Today's Extremes

Country Highs Country Lows

Community

WunderPhotos

Category 6

Welcome to Category 6. This is the collective home for Weather Underground's featured writeups by Dr. Jeff Masters (right), Bob Henson (left), Chris Burt, and other regular contributors.

Nearby

Air Quality

  Air Quality AQ Index Pollutant
Not available.

Snow Depth

Station Depth Elevation

Earthquake Activity

City Distance Mag. Time & Date
Minimum magnitude displayed is 2.5.

Coastal Water Temperatures

Place Temperature

Stations

Nearby Weather Stations

Station Location Temp. Windchill Dew Point Humidity Wind Precip. Elev Updated Type